• Join FlightAware (Why Join?)
  • Login
  • US Flag 
10:34PM EDT


 

Airport Tracker/Info


-or-


 

Live Flight TrackerFlight Track Log ✈ FLG3740 ✈ 03-May-2013 ✈ KCVG - KGRR

Flight Track Log - Related Links

Times and Time Zones

All times are in EDT time to prevent confusion due to time zone crossing. See the FLG3740 flight status page for this flight to view local times or setup timezone preferences in your user account.

Time Position Orientation Groundspeed Altitude Reporting Facility
EDT Latitude Longitude Course Direction KTS MPH feet Rate Location/Type
04:29PM 39.0500 -84.6667 351° North 147 169 1,200  Level Cincinnati TRACON
04:29PM 39.0167 -84.6833 201° Southwest 167 192 2,400 1,620 Climbing Cincinnati TRACON
04:30PM 39.0167 -84.7667 270° West 266 306 4,000 1,980 Climbing Cincinnati TRACON
04:32PM 39.0879 -84.8976 351° North  Level FlightAware Approximate
04:32PM 39.1694 -84.8492 337° Northwest 301 346 8,500  Level Indianapolis Center
04:33PM 39.2062 -84.9258 343° North  Level FlightAware Approximate
04:33PM 39.2547 -84.8819 343° North 313 360 10,900  Level Indianapolis Center
04:34PM 39.3231 -84.9621 351° North  Level FlightAware Approximate
04:35PM 39.3403 -84.8956 353° North 337 388 12,300  Level Indianapolis Center
04:36PM 39.4631 -84.9167 352° North 368 423 14,100 1,620 Climbing Indianapolis Center
04:37PM 39.5681 -84.9336 353° North 379 436 15,700 1,560 Climbing Indianapolis Center
04:38PM 39.6764 -84.9511 353° North 388 447 17,300 1,500 Climbing Indianapolis Center
04:39PM 39.7847 -84.9703 352° North 393 452 18,800 1,380 Climbing Indianapolis Center
04:40PM 39.8906 -84.9881 353° North 390 449 20,200 1,260 Climbing Indianapolis Center
04:41PM 40.0219 -85.0111 352° North 396 456 21,500 1,080 Climbing Indianapolis Center
04:42PM 40.1350 -85.0303 353° North 408 470 22,500 960 Climbing Indianapolis Center
04:43PM 40.2481 -85.0492 353° North 412 474 23,500 720 Climbing Indianapolis Center
04:44PM 40.3625 -85.0700 352° North 417 480 24,000 240 Climbing Indianapolis Center
04:45PM 40.4775 -85.0883 353° North 419 482 24,000  Level Indianapolis Center
04:46PM 40.6064 -85.1253 348° North 402 463 24,000  Level Indianapolis Center
04:47PM 40.7008 -85.1933 331° Northwest 391 450 24,000  Level Indianapolis Center
04:48PM 40.7981 -85.2367 341° North 375 432 24,000  Level Indianapolis Center
04:49PM 40.9028 -85.2500 355° North 375 432 24,000  Level Indianapolis Center
04:50PM 41.0056 -85.2639 354° North 375 432 24,000  Level Indianapolis Center
04:51PM 41.1114 -85.2783 354° North 382 440 24,000  Level Indianapolis Center
04:52PM 41.2558 -85.2958 355° North 395 455 24,000  Level Chicago Center
04:53PM 41.3686 -85.3128 354° North 405 466 24,000  Level Chicago Center
04:54PM 41.4819 -85.3275 354° North 410 472 24,000  Level Chicago Center
04:55PM 41.5969 -85.3428 354° North 412 474 24,000  Level Chicago Center
04:56PM 41.7272 -85.3619 354° North 416 479 24,000 -540 Level Chicago Center
04:57PM 41.8431 -85.3772 354° North 421 484 22,900 -1,380 Descending Chicago Center
04:58PM 41.9556 -85.3939 354° North 413 475 21,200 -1,800 Descending Chicago Center
04:59PM 42.0669 -85.4092 354° North 376 433 19,200 -1,800 Descending Chicago Center
05:00PM 42.1658 -85.4231 354° North 362 417 17,500 -1,740 Descending Chicago Center
05:02PM 42.2614 -85.4353 355° North 348 400 15,700 -1,980 Descending Chicago Center
05:03PM 42.3708 -85.4503 354° North 336 387 13,500 -1,980 Descending Chicago Center
05:04PM 42.4583 -85.4614 355° North 321 369 11,700 -1,740 Descending Chicago Center
05:05PM 42.5425 -85.4719 355° North 310 357 9,900 -1,800 Descending Chicago Center
05:06PM 42.6231 -85.4847 353° North 298 343 8,000 -1,860 Descending Chicago Center
05:07PM 42.6825 -85.5456 323° Northwest 285 328 6,100 -1,860 Descending Chicago Center
05:08PM 42.7350 -85.6233 313° West 281 323 4,200 -1,500 Descending Chicago Center
05:09PM 42.7933 -85.7117 312° West 266 306 3,000 -600 Descending Chicago Center
05:10PM 42.8444 -85.7400 338° Northwest 231 266 3,000  Level Chicago Center